createdAt,value
2023-04-18T00:00:04.691Z,19.25
2023-04-18T00:01:04.760Z,19.25
2023-04-18T00:02:04.803Z,19.25
2023-04-18T00:03:05.119Z,19.25
2023-04-18T00:04:04.851Z,19.24
2023-04-18T00:05:04.789Z,19.24
2023-04-18T00:06:05.787Z,19.24
2023-04-18T00:07:05.813Z,19.24
2023-04-18T00:08:05.811Z,19.25
2023-04-18T00:09:05.830Z,19.24
2023-04-18T00:10:05.850Z,19.25
2023-04-18T00:11:05.831Z,19.23
2023-04-18T00:12:05.862Z,19.24
2023-04-18T00:13:05.866Z,19.23
2023-04-18T00:14:05.891Z,19.23
2023-04-18T00:15:05.932Z,19.23
2023-04-18T00:16:05.934Z,19.23
2023-04-18T00:17:04.994Z,19.23
2023-04-18T00:18:06.155Z,19.23
2023-04-18T00:19:04.970Z,19.23
2023-04-18T00:20:05.983Z,19.23
2023-04-18T00:21:05.988Z,19.23
2023-04-18T00:22:06.064Z,19.23
2023-04-18T00:23:06.044Z,19.23
2023-04-18T00:24:06.050Z,19.22
2023-04-18T00:25:06.054Z,19.23
2023-04-18T00:26:06.097Z,19.22
2023-04-18T00:27:05.109Z,19.22
2023-04-18T00:28:06.142Z,19.22
2023-04-18T00:29:06.129Z,19.22
2023-04-18T00:30:06.145Z,19.21
2023-04-18T00:31:05.177Z,19.21
2023-04-18T00:32:05.211Z,19.21
2023-04-18T00:33:06.279Z,19.21
2023-04-18T00:34:05.210Z,19.21
2023-04-18T00:35:06.300Z,19.21
2023-04-18T00:36:06.271Z,19.21
2023-04-18T00:37:05.297Z,19.21
2023-04-18T00:38:06.318Z,19.21
2023-04-18T00:39:06.346Z,19.20
2023-04-18T00:40:06.368Z,19.20
2023-04-18T00:41:05.434Z,19.20
2023-04-18T00:42:05.495Z,19.21
2023-04-18T00:43:06.456Z,19.21
2023-04-18T00:44:06.485Z,19.20
2023-04-18T00:45:05.536Z,19.19
2023-04-18T00:46:05.597Z,19.19
2023-04-18T00:47:05.611Z,19.19
2023-04-18T00:48:06.659Z,19.19
2023-04-18T00:49:06.597Z,19.19
2023-04-18T00:50:06.626Z,19.18
2023-04-18T00:51:06.635Z,19.19
2023-04-18T00:52:06.899Z,19.18
2023-04-18T00:53:06.686Z,19.19
2023-04-18T00:54:05.706Z,19.19
2023-04-18T00:55:06.744Z,19.18
2023-04-18T00:56:05.767Z,19.18
2023-04-18T00:57:05.775Z,19.18
2023-04-18T00:58:06.860Z,19.17
2023-04-18T00:59:05.825Z,19.18
2023-04-18T01:00:05.829Z,19.18
2023-04-18T01:01:06.902Z,19.17
2023-04-18T01:02:06.982Z,19.18
2023-04-18T01:03:07.067Z,19.18
2023-04-18T01:04:06.962Z,19.17
2023-04-18T01:05:06.948Z,19.17
2023-04-18T01:06:05.972Z,19.16
2023-04-18T01:07:06.021Z,19.16
2023-04-18T01:08:07.016Z,19.16
2023-04-18T01:09:06.033Z,19.16
2023-04-18T01:10:07.057Z,19.16
2023-04-18T01:11:07.089Z,19.17
2023-04-18T01:12:07.108Z,19.17
2023-04-18T01:13:07.141Z,19.16
2023-04-18T01:14:06.315Z,19.16
2023-04-18T01:15:07.158Z,19.16
2023-04-18T01:16:06.210Z,19.15
2023-04-18T01:17:07.211Z,19.16
2023-04-18T01:18:06.252Z,19.15
2023-04-18T01:19:06.288Z,19.15
2023-04-18T01:20:07.289Z,19.15
2023-04-18T01:21:07.300Z,19.14
2023-04-18T01:22:06.334Z,19.14
2023-04-18T01:23:06.387Z,19.15
2023-04-18T01:24:07.432Z,19.14
2023-04-18T01:25:07.474Z,19.14
2023-04-18T01:26:07.461Z,19.14
2023-04-18T01:27:07.487Z,19.14
2023-04-18T01:28:07.530Z,19.13
2023-04-18T01:29:06.549Z,19.13
2023-04-18T01:30:07.595Z,19.14
2023-04-18T01:31:06.661Z,19.13
2023-04-18T01:32:06.615Z,19.13
2023-04-18T01:33:06.727Z,19.15
2023-04-18T01:34:07.735Z,19.16
2023-04-18T01:35:06.696Z,19.18
2023-04-18T01:36:07.717Z,19.18
2023-04-18T01:37:07.756Z,19.19
2023-04-18T01:38:07.805Z,19.21
2023-04-18T01:39:07.802Z,19.22
2023-04-18T01:40:06.808Z,19.23
2023-04-18T01:41:07.846Z,19.25
2023-04-18T01:42:07.946Z,19.26
2023-04-18T01:43:07.949Z,19.28
2023-04-18T01:44:06.910Z,19.30
2023-04-18T01:45:06.936Z,19.32
2023-04-18T01:46:07.119Z,19.33
2023-04-18T01:47:06.966Z,19.35
2023-04-18T01:48:06.994Z,19.36
2023-04-18T01:49:08.010Z,19.38
2023-04-18T01:50:08.007Z,19.40
2023-04-18T01:51:07.992Z,19.41
2023-04-18T01:52:07.991Z,19.42
2023-04-18T01:53:08.029Z,19.43
2023-04-18T01:54:08.034Z,19.45
2023-04-18T01:55:08.043Z,19.47
2023-04-18T01:56:07.009Z,19.49
2023-04-18T01:57:06.993Z,19.51
2023-04-18T01:58:08.006Z,19.52
2023-04-18T01:59:07.012Z,19.54
2023-04-18T02:00:07.017Z,19.55
2023-04-18T02:01:08.062Z,19.56
2023-04-18T02:02:08.189Z,19.58
2023-04-18T02:03:08.255Z,19.59
2023-04-18T02:04:07.284Z,19.60
2023-04-18T02:05:07.208Z,19.62
2023-04-18T02:06:08.260Z,19.63
2023-04-18T02:07:07.323Z,19.65
2023-04-18T02:08:08.426Z,19.66
2023-04-18T02:09:08.453Z,19.67
2023-04-18T02:10:08.529Z,19.69
2023-04-18T02:11:08.592Z,19.69
2023-04-18T02:12:07.652Z,19.70
2023-04-18T02:13:08.685Z,19.72
2023-04-18T02:14:08.726Z,19.73
2023-04-18T02:15:08.785Z,19.74
2023-04-18T02:16:08.862Z,19.76
2023-04-18T02:17:07.937Z,19.76
2023-04-18T02:18:08.988Z,19.77
2023-04-18T02:19:08.998Z,19.79
2023-04-18T02:20:09.055Z,19.80
2023-04-18T02:21:09.112Z,19.81
2023-04-18T02:22:08.173Z,19.82
2023-04-18T02:23:09.244Z,19.83
2023-04-18T02:24:08.282Z,19.84
2023-04-18T02:25:09.328Z,19.85
2023-04-18T02:26:09.370Z,19.86
2023-04-18T02:27:09.428Z,19.87
2023-04-18T02:28:08.472Z,19.88
2023-04-18T02:29:09.531Z,19.89
2023-04-18T02:30:09.625Z,19.89
2023-04-18T02:31:08.621Z,19.91
2023-04-18T02:32:08.763Z,19.91
2023-04-18T02:33:09.735Z,19.93
2023-04-18T02:34:08.812Z,19.95
2023-04-18T02:35:09.835Z,19.95
2023-04-18T02:36:09.853Z,19.96
2023-04-18T02:37:08.927Z,19.97
2023-04-18T02:38:10.006Z,19.98
2023-04-18T02:39:09.011Z,20.00
2023-04-18T02:40:09.072Z,20.00
2023-04-18T02:41:10.111Z,20.01
2023-04-18T02:42:09.148Z,20.00
2023-04-18T02:43:10.204Z,20.01
2023-04-18T02:44:10.249Z,20.03
2023-04-18T02:45:10.287Z,20.03
2023-04-18T02:46:10.407Z,20.03
2023-04-18T02:47:10.384Z,20.04
2023-04-18T02:48:10.428Z,20.05
2023-04-18T02:49:10.578Z,20.05
2023-04-18T02:50:10.521Z,20.06
2023-04-18T02:51:10.498Z,20.06
2023-04-18T02:52:10.558Z,20.08
2023-04-18T02:53:11.496Z,20.08
2023-04-18T02:54:10.613Z,20.09
2023-04-18T02:55:10.666Z,20.09
2023-04-18T02:56:09.687Z,20.09
2023-04-18T02:57:09.716Z,20.11
2023-04-18T02:58:10.739Z,20.11
2023-04-18T02:59:10.752Z,20.12
2023-04-18T03:00:10.775Z,20.12
2023-04-18T03:01:10.889Z,20.11
2023-04-18T03:02:10.861Z,20.12
2023-04-18T03:03:09.919Z,20.14
2023-04-18T03:04:09.937Z,20.14
2023-04-18T03:05:10.961Z,20.14
2023-04-18T03:06:10.992Z,20.14
2023-04-18T03:07:10.992Z,20.15
2023-04-18T03:08:10.012Z,20.15
2023-04-18T03:09:11.047Z,20.16
2023-04-18T03:10:10.067Z,20.15
2023-04-18T03:11:11.116Z,20.16
2023-04-18T03:12:11.115Z,20.17
2023-04-18T03:13:10.182Z,20.17
2023-04-18T03:14:11.534Z,20.16
2023-04-18T03:15:11.223Z,20.17
2023-04-18T03:16:10.333Z,20.17
2023-04-18T03:17:11.257Z,20.18
2023-04-18T03:18:10.295Z,20.18
2023-04-18T03:19:11.370Z,20.18
2023-04-18T03:20:11.365Z,20.18
2023-04-18T03:21:11.427Z,20.19
2023-04-18T03:22:11.418Z,20.19
2023-04-18T03:23:11.449Z,20.20
2023-04-18T03:24:12.361Z,20.20
2023-04-18T03:25:11.529Z,20.20
2023-04-18T03:26:11.524Z,20.19
2023-04-18T03:27:11.569Z,20.20
2023-04-18T03:28:10.561Z,20.20
2023-04-18T03:29:11.599Z,20.20
2023-04-18T03:30:11.645Z,20.21
2023-04-18T03:31:11.681Z,20.21
2023-04-18T03:32:10.657Z,20.21
2023-04-18T03:33:11.723Z,20.22
2023-04-18T03:34:11.941Z,20.21
2023-04-18T03:35:10.759Z,20.22
2023-04-18T03:36:11.792Z,20.22
2023-04-18T03:37:10.792Z,20.23
2023-04-18T03:38:11.837Z,20.23
2023-04-18T03:39:11.877Z,20.22
2023-04-18T03:40:11.853Z,20.23
2023-04-18T03:41:10.895Z,20.23
2023-04-18T03:42:10.901Z,20.23
2023-04-18T03:43:11.926Z,20.24
2023-04-18T03:44:11.097Z,20.25
2023-04-18T03:45:10.967Z,20.25
2023-04-18T03:46:12.005Z,20.25
2023-04-18T03:47:11.017Z,20.25
2023-04-18T03:48:11.066Z,20.26
2023-04-18T03:49:11.083Z,20.26
2023-04-18T03:50:12.058Z,20.27
2023-04-18T03:51:12.090Z,20.27
2023-04-18T03:52:12.118Z,20.28
2023-04-18T03:53:12.118Z,20.27
2023-04-18T03:54:11.336Z,20.27
2023-04-18T03:55:11.169Z,20.28
2023-04-18T03:56:12.174Z,20.29
2023-04-18T03:57:12.187Z,20.28
2023-04-18T03:58:12.228Z,20.28
2023-04-18T03:59:12.233Z,20.28
2023-04-18T04:00:12.222Z,20.28
2023-04-18T04:01:12.264Z,20.27
2023-04-18T04:02:12.309Z,20.27
2023-04-18T04:03:12.429Z,20.28
2023-04-18T04:04:11.401Z,20.27
2023-04-18T04:05:11.322Z,20.27
2023-04-18T04:06:12.327Z,20.27
2023-04-18T04:07:12.326Z,20.27
2023-04-18T04:08:12.335Z,20.26
2023-04-18T04:09:12.356Z,20.26
2023-04-18T04:10:11.427Z,20.25
2023-04-18T04:11:12.428Z,20.25
2023-04-18T04:12:12.444Z,20.25
2023-04-18T04:13:12.466Z,20.24
2023-04-18T04:14:12.775Z,20.24
2023-04-18T04:15:12.514Z,20.23
2023-04-18T04:16:12.573Z,20.24
2023-04-18T04:17:11.549Z,20.24
2023-04-18T04:18:11.571Z,20.24
2023-04-18T04:19:12.613Z,20.23
2023-04-18T04:20:11.623Z,20.23
2023-04-18T04:21:12.645Z,20.23
2023-04-18T04:22:12.682Z,20.23
2023-04-18T04:23:11.713Z,20.24
2023-04-18T04:24:12.983Z,20.23
2023-04-18T04:25:11.786Z,20.23
2023-04-18T04:26:12.836Z,20.23
2023-04-18T04:27:12.832Z,20.22
2023-04-18T04:28:12.844Z,20.23
2023-04-18T04:29:12.880Z,20.24
2023-04-18T04:30:13.417Z,20.23
2023-04-18T04:31:11.947Z,20.23
2023-04-18T04:32:13.121Z,20.24
2023-04-18T04:33:12.996Z,20.23
2023-04-18T04:34:13.244Z,20.23
2023-04-18T04:35:12.084Z,20.23
2023-04-18T04:36:13.108Z,20.23
2023-04-18T04:37:12.152Z,20.23
2023-04-18T04:38:13.161Z,20.23
2023-04-18T04:39:13.181Z,20.23
2023-04-18T04:40:13.211Z,20.24
2023-04-18T04:41:13.208Z,20.25
2023-04-18T04:42:13.296Z,20.26
2023-04-18T04:43:12.268Z,20.26
2023-04-18T04:44:13.642Z,20.26
2023-04-18T04:45:12.328Z,20.27
2023-04-18T04:46:12.385Z,20.27
2023-04-18T04:47:13.382Z,20.26
2023-04-18T04:48:13.393Z,20.27
2023-04-18T04:49:12.470Z,20.27
2023-04-18T04:50:12.493Z,20.27
2023-04-18T04:51:12.485Z,20.29
2023-04-18T04:52:13.511Z,20.29
2023-04-18T04:53:13.532Z,20.29
2023-04-18T04:54:14.053Z,20.29
2023-04-18T04:55:13.691Z,20.29
2023-04-18T04:56:13.645Z,20.30
2023-04-18T04:57:13.708Z,20.30
2023-04-18T04:58:13.692Z,20.32
2023-04-18T04:59:13.690Z,20.32
2023-04-18T05:00:13.724Z,20.33
2023-04-18T05:01:13.861Z,20.33
2023-04-18T05:02:13.828Z,20.33
2023-04-18T05:03:14.004Z,20.33
2023-04-18T05:04:13.103Z,20.33
2023-04-18T05:05:13.821Z,20.33
2023-04-18T05:06:13.819Z,20.34
2023-04-18T05:07:12.861Z,20.34
2023-04-18T05:08:12.878Z,20.33
2023-04-18T05:09:12.922Z,20.34
2023-04-18T05:10:12.906Z,20.34
2023-04-18T05:11:12.928Z,20.34
2023-04-18T05:12:12.957Z,20.35
2023-04-18T05:13:12.987Z,20.35
2023-04-18T05:14:13.367Z,20.35
2023-04-18T05:15:14.014Z,20.35
2023-04-18T05:16:13.033Z,20.35
2023-04-18T05:17:14.027Z,20.35
2023-04-18T05:18:14.028Z,20.34
2023-04-18T05:19:14.099Z,20.35
2023-04-18T05:20:14.109Z,20.35
2023-04-18T05:21:13.096Z,20.35
2023-04-18T05:22:14.127Z,20.35
2023-04-18T05:23:14.161Z,20.35
2023-04-18T05:24:14.496Z,20.34
2023-04-18T05:25:13.193Z,20.33
2023-04-18T05:26:14.250Z,20.34
2023-04-18T05:27:13.226Z,20.33
2023-04-18T05:28:14.284Z,20.33
2023-04-18T05:29:13.473Z,20.32
2023-04-18T05:30:13.320Z,20.32
2023-04-18T05:31:14.388Z,20.32
2023-04-18T05:32:13.401Z,20.33
2023-04-18T05:33:14.415Z,20.34
2023-04-18T05:34:14.679Z,20.36
2023-04-18T05:35:14.427Z,20.38
2023-04-18T05:36:14.440Z,20.39
2023-04-18T05:37:14.430Z,20.40
2023-04-18T05:38:14.400Z,20.41
2023-04-18T05:39:13.415Z,20.41
2023-04-18T05:40:13.431Z,20.39
2023-04-18T05:41:13.525Z,20.38
2023-04-18T05:42:14.487Z,20.24
2023-04-18T05:43:14.581Z,20.07
2023-04-18T05:44:14.602Z,19.93
2023-04-18T05:45:14.555Z,19.87
2023-04-18T05:46:13.648Z,19.81
2023-04-18T05:47:14.549Z,19.79
2023-04-18T05:48:13.688Z,19.81
2023-04-18T05:49:13.770Z,19.81
2023-04-18T05:50:14.864Z,19.85
2023-04-18T05:51:14.909Z,19.91
2023-04-18T05:52:14.952Z,19.97
2023-04-18T05:53:17.827Z,19.22
2023-04-18T05:54:15.069Z,17.96
2023-04-18T05:55:15.361Z,17.21
2023-04-18T05:56:15.121Z,16.91
2023-04-18T05:57:13.944Z,16.95
2023-04-18T05:58:14.933Z,17.26
2023-04-18T05:59:13.993Z,17.66
2023-04-18T06:00:14.950Z,18.04
2023-04-18T06:01:14.901Z,18.42
2023-04-18T06:02:15.024Z,18.77
2023-04-18T06:03:14.006Z,19.06
2023-04-18T06:04:14.289Z,19.31
2023-04-18T06:05:15.049Z,19.52
2023-04-18T06:06:13.863Z,19.70
2023-04-18T06:07:14.864Z,19.85
2023-04-18T06:08:13.870Z,20.01
2023-04-18T06:09:13.859Z,20.15
2023-04-18T06:10:13.847Z,20.27
2023-04-18T06:11:14.867Z,20.39
2023-04-18T06:12:13.870Z,20.48
2023-04-18T06:13:14.827Z,20.55
2023-04-18T06:14:15.187Z,20.64
2023-04-18T06:15:15.009Z,20.72
2023-04-18T06:16:14.866Z,20.79
2023-04-18T06:17:13.832Z,20.84
2023-04-18T06:18:14.811Z,20.90
2023-04-18T06:19:13.795Z,20.96
2023-04-18T06:20:14.812Z,21.00
2023-04-18T06:21:14.829Z,21.04
2023-04-18T06:22:14.869Z,21.09
2023-04-18T06:23:14.939Z,21.13
2023-04-18T06:24:15.335Z,21.18
2023-04-18T06:25:13.974Z,21.25
2023-04-18T06:26:15.069Z,21.28
2023-04-18T06:27:24.406Z,21.33
2023-04-18T06:28:14.994Z,21.39
2023-04-18T06:29:14.979Z,21.39
2023-04-18T06:30:15.021Z,21.41
2023-04-18T06:31:15.043Z,21.44
2023-04-18T06:32:13.964Z,21.43
2023-04-18T06:33:13.939Z,21.47
2023-04-18T06:34:15.454Z,21.49
2023-04-18T06:35:14.945Z,21.52
2023-04-18T06:36:13.947Z,21.54
2023-04-18T06:37:14.950Z,21.55
2023-04-18T06:38:14.946Z,21.55
2023-04-18T06:39:14.024Z,21.55
2023-04-18T06:40:13.936Z,21.59
2023-04-18T06:41:14.909Z,21.59
2023-04-18T06:42:14.909Z,21.60
2023-04-18T06:43:13.967Z,21.64
2023-04-18T06:44:15.015Z,21.66
2023-04-18T06:45:14.886Z,21.67
2023-04-18T06:46:14.926Z,21.69
2023-04-18T06:47:14.865Z,21.69
2023-04-18T06:48:14.873Z,21.69
2023-04-18T06:49:15.014Z,21.79
2023-04-18T06:50:15.010Z,21.83
2023-04-18T06:51:15.109Z,21.83
2023-04-18T06:52:14.122Z,21.83
2023-04-18T06:53:15.083Z,21.87
2023-04-18T06:54:15.257Z,21.88
2023-04-18T06:55:15.218Z,21.88
2023-04-18T06:56:14.592Z,21.88
2023-04-18T06:57:15.269Z,21.84
2023-04-18T06:58:15.390Z,21.79
2023-04-18T06:59:15.404Z,21.76
2023-04-18T07:00:14.422Z,21.71
2023-04-18T07:01:15.577Z,21.66
2023-04-18T07:02:14.580Z,21.64
2023-04-18T07:03:15.734Z,21.61
2023-04-18T07:04:14.872Z,21.58
2023-04-18T07:05:15.561Z,21.55
2023-04-18T07:06:15.598Z,21.53
2023-04-18T07:07:14.567Z,21.50
2023-04-18T07:08:14.549Z,21.49
2023-04-18T07:09:15.559Z,21.47
2023-04-18T07:10:15.594Z,21.46
2023-04-18T07:11:15.627Z,21.45
2023-04-18T07:12:14.654Z,21.44
2023-04-18T07:13:15.624Z,21.41
2023-04-18T07:14:15.848Z,21.40
2023-04-18T07:15:15.662Z,21.39
2023-04-18T07:16:15.856Z,21.38
2023-04-18T07:17:15.831Z,21.37
2023-04-18T07:18:23.276Z,21.38
2023-04-18T07:19:15.721Z,21.37
2023-04-18T07:20:15.745Z,21.36
2023-04-18T07:21:15.811Z,21.37
2023-04-18T07:22:14.751Z,21.36
2023-04-18T07:23:15.699Z,21.35
2023-04-18T07:24:15.994Z,21.35
2023-04-18T07:25:15.746Z,21.35
2023-04-18T07:26:15.778Z,21.34
2023-04-18T07:27:15.675Z,21.34
2023-04-18T07:28:14.653Z,21.34
2023-04-18T07:29:15.700Z,21.34
2023-04-18T07:30:15.656Z,21.34
2023-04-18T07:31:15.682Z,21.34
2023-04-18T07:32:14.659Z,21.33
2023-04-18T07:33:15.632Z,21.32
2023-04-18T07:34:15.894Z,21.33
2023-04-18T07:35:15.634Z,21.33
2023-04-18T07:36:16.274Z,21.32
2023-04-18T07:37:15.624Z,21.32
2023-04-18T07:38:15.677Z,21.32
2023-04-18T07:39:15.713Z,21.32
2023-04-18T07:40:14.732Z,21.32
2023-04-18T07:41:14.761Z,21.32
2023-04-18T07:42:15.719Z,21.32
2023-04-18T07:43:15.755Z,21.33
2023-04-18T07:44:16.005Z,21.32
2023-04-18T07:45:14.796Z,21.32
2023-04-18T07:46:16.015Z,21.33
2023-04-18T07:47:15.852Z,21.32
2023-04-18T07:48:15.941Z,21.34
2023-04-18T07:49:16.162Z,21.33
2023-04-18T07:50:16.007Z,21.34
2023-04-18T07:51:16.369Z,21.36
2023-04-18T07:52:15.019Z,21.36
2023-04-18T07:53:16.307Z,21.36
2023-04-18T07:54:15.262Z,21.37
2023-04-18T07:55:16.062Z,21.36
2023-04-18T07:56:16.087Z,21.37
2023-04-18T07:57:15.144Z,21.36
2023-04-18T07:58:16.112Z,21.36
2023-04-18T07:59:16.462Z,21.37
2023-04-18T08:00:16.155Z,21.36
2023-04-18T08:01:16.143Z,21.36
2023-04-18T08:02:16.306Z,21.36
2023-04-18T08:03:15.480Z,21.35
2023-04-18T08:04:15.320Z,21.36
2023-04-18T08:05:16.602Z,21.36
2023-04-18T08:06:15.213Z,21.36
2023-04-18T08:07:16.361Z,21.36
2023-04-18T08:08:16.260Z,21.36
2023-04-18T08:09:16.416Z,21.36
2023-04-18T08:10:15.518Z,21.36
2023-04-18T08:11:15.299Z,21.37
2023-04-18T08:12:15.376Z,21.38
2023-04-18T08:13:16.336Z,21.38
2023-04-18T08:14:15.367Z,21.38
2023-04-18T08:15:16.528Z,21.38
2023-04-18T08:16:17.480Z,21.36
2023-04-18T08:17:16.400Z,21.37
2023-04-18T08:18:16.455Z,21.37
2023-04-18T08:19:15.713Z,21.37
2023-04-18T08:20:15.517Z,21.38
2023-04-18T08:21:16.477Z,21.38
2023-04-18T08:22:15.576Z,21.39
2023-04-18T08:23:15.478Z,21.38
2023-04-18T08:24:16.572Z,21.39
2023-04-18T08:25:15.520Z,21.39
2023-04-18T08:26:15.617Z,21.39
2023-04-18T08:27:17.768Z,21.39
2023-04-18T08:28:16.791Z,21.38
2023-04-18T08:29:16.645Z,21.39
2023-04-18T08:30:16.617Z,21.39
2023-04-18T08:31:15.677Z,21.39
2023-04-18T08:32:16.617Z,21.39
2023-04-18T08:33:16.652Z,21.40
2023-04-18T08:34:16.712Z,21.39
2023-04-18T08:35:16.742Z,21.39
2023-04-18T08:36:16.701Z,21.40
2023-04-18T08:37:16.716Z,21.40
2023-04-18T08:38:16.720Z,21.40
2023-04-18T08:39:15.950Z,21.40
2023-04-18T08:40:16.805Z,21.41
2023-04-18T08:41:16.146Z,21.42
2023-04-18T08:42:16.907Z,21.41
2023-04-18T08:43:16.802Z,21.42
2023-04-18T08:44:16.829Z,21.34
2023-04-18T08:45:16.035Z,21.18
2023-04-18T08:46:15.981Z,21.23
2023-04-18T08:47:15.985Z,21.28
2023-04-18T08:48:17.005Z,21.33
2023-04-18T08:49:17.328Z,21.36
2023-04-18T08:50:17.048Z,21.42
2023-04-18T08:51:17.077Z,21.46
2023-04-18T08:52:17.081Z,21.52
2023-04-18T08:53:17.077Z,21.58
2023-04-18T08:54:17.317Z,21.65
2023-04-18T08:55:17.221Z,21.69
2023-04-18T08:56:17.138Z,21.70
2023-04-18T08:57:17.090Z,21.72
2023-04-18T08:58:17.186Z,21.74
2023-04-18T08:59:16.412Z,21.74
2023-04-18T09:00:17.283Z,21.72
2023-04-18T09:01:17.394Z,21.70
2023-04-18T09:02:17.467Z,21.68
2023-04-18T09:03:17.584Z,21.68
2023-04-18T09:04:17.625Z,21.67
2023-04-18T09:05:16.616Z,21.67
2023-04-18T09:06:16.667Z,21.66
2023-04-18T09:07:17.697Z,21.65
2023-04-18T09:08:17.749Z,21.65
2023-04-18T09:09:16.777Z,21.64
2023-04-18T09:10:17.795Z,21.64
2023-04-18T09:11:16.826Z,21.64
2023-04-18T09:12:17.842Z,21.64
2023-04-18T09:13:17.867Z,21.64
2023-04-18T09:14:18.097Z,21.65
2023-04-18T09:15:16.965Z,21.65
2023-04-18T09:16:17.072Z,21.65
2023-04-18T09:17:17.053Z,21.65
2023-04-18T09:18:18.082Z,21.66
2023-04-18T09:19:18.424Z,21.66
2023-04-18T09:20:18.146Z,21.69
2023-04-18T09:21:18.271Z,21.68
2023-04-18T09:22:18.218Z,21.68
2023-04-18T09:23:17.289Z,21.69
2023-04-18T09:24:18.311Z,21.69
2023-04-18T09:25:17.343Z,21.69
2023-04-18T09:26:17.420Z,21.69
2023-04-18T09:27:18.450Z,21.68
2023-04-18T09:28:18.538Z,21.69
2023-04-18T09:29:18.662Z,21.68
2023-04-18T09:30:18.662Z,21.68
2023-04-18T09:31:18.727Z,21.68
2023-04-18T09:32:18.771Z,21.68
2023-04-18T09:33:17.782Z,21.68
2023-04-18T09:34:18.835Z,21.67
2023-04-18T09:35:18.912Z,21.67
2023-04-18T09:36:17.972Z,21.68
2023-04-18T09:37:18.029Z,21.68
2023-04-18T09:38:19.127Z,21.67
2023-04-18T09:39:18.302Z,21.68
2023-04-18T09:40:19.235Z,21.67
2023-04-18T09:41:21.491Z,21.68
2023-04-18T09:42:18.298Z,21.70
2023-04-18T09:43:19.289Z,21.72
2023-04-18T09:44:18.606Z,21.74
2023-04-18T09:45:19.289Z,21.75
2023-04-18T09:46:18.647Z,21.76
2023-04-18T09:47:18.662Z,21.77
2023-04-18T09:48:19.286Z,21.77
2023-04-18T09:49:18.568Z,21.78
2023-04-18T09:50:19.237Z,21.81
2023-04-18T09:51:19.227Z,21.82
2023-04-18T09:52:18.694Z,21.91
2023-04-18T09:53:20.569Z,21.97
2023-04-18T09:54:18.421Z,22.07
2023-04-18T09:55:19.476Z,22.16
2023-04-18T09:56:18.515Z,22.22
2023-04-18T09:57:18.644Z,22.29
2023-04-18T09:58:18.643Z,22.37
2023-04-18T09:59:21.111Z,22.39
2023-04-18T10:00:18.821Z,22.43
2023-04-18T10:01:20.012Z,22.48
2023-04-18T10:02:20.200Z,22.50
2023-04-18T10:03:20.168Z,22.54
2023-04-18T10:04:19.033Z,22.58
2023-04-18T10:05:21.235Z,22.61
2023-04-18T10:06:20.047Z,22.64
2023-04-18T10:07:19.062Z,22.69
2023-04-18T10:08:20.133Z,22.73
2023-04-18T10:09:19.131Z,22.74
2023-04-18T10:10:20.170Z,22.74
2023-04-18T10:11:20.368Z,22.75
2023-04-18T10:12:20.270Z,22.75
2023-04-18T10:13:19.225Z,22.77
2023-04-18T10:14:19.242Z,22.79
2023-04-18T10:15:19.274Z,22.80
2023-04-18T10:16:20.499Z,22.82
2023-04-18T10:17:20.461Z,22.85
2023-04-18T10:18:20.422Z,22.87
2023-04-18T10:19:20.438Z,22.88
2023-04-18T10:20:19.345Z,22.90
2023-04-18T10:21:21.418Z,22.92
2023-04-18T10:22:20.318Z,22.91
2023-04-18T10:23:20.526Z,22.92
2023-04-18T10:24:19.306Z,22.93
2023-04-18T10:25:20.336Z,22.93
2023-04-18T10:26:20.301Z,22.95
2023-04-18T10:27:20.381Z,22.97
2023-04-18T10:28:20.387Z,22.98
2023-04-18T10:29:20.495Z,22.98
2023-04-18T10:30:20.399Z,22.98
2023-04-18T10:31:19.433Z,22.97
2023-04-18T10:32:20.463Z,22.99
2023-04-18T10:33:29.330Z,23.00
2023-04-18T10:34:20.826Z,23.01
2023-04-18T10:35:20.363Z,23.02
2023-04-18T10:36:20.366Z,23.03
2023-04-18T10:37:20.591Z,23.04
2023-04-18T10:38:20.392Z,23.03
2023-04-18T10:39:20.378Z,23.02
2023-04-18T10:40:19.450Z,23.03
2023-04-18T10:41:20.315Z,23.05
2023-04-18T10:42:19.664Z,23.05
2023-04-18T10:43:20.304Z,23.11
2023-04-18T10:44:19.292Z,23.17
2023-04-18T10:45:19.452Z,23.12
2023-04-18T10:46:31.048Z,23.07
2023-04-18T10:47:20.775Z,23.01
2023-04-18T10:48:19.328Z,22.97
2023-04-18T10:49:20.332Z,22.92
2023-04-18T10:50:20.276Z,22.88
2023-04-18T10:51:20.261Z,22.84
2023-04-18T10:52:19.266Z,22.79
2023-04-18T10:53:19.247Z,22.75
2023-04-18T10:54:20.331Z,22.69
2023-04-18T10:55:19.287Z,22.64
2023-04-18T10:56:20.233Z,22.60
2023-04-18T10:57:20.218Z,22.57
2023-04-18T10:58:20.205Z,22.56
2023-04-18T10:59:20.194Z,22.54
2023-04-18T11:00:20.308Z,22.51
2023-04-18T11:01:19.199Z,22.48
2023-04-18T11:02:20.314Z,22.47
2023-04-18T11:03:19.282Z,22.45
2023-04-18T11:04:19.473Z,22.43
2023-04-18T11:05:20.162Z,22.39
2023-04-18T11:06:19.232Z,22.39
2023-04-18T11:07:19.160Z,22.37
2023-04-18T11:08:19.134Z,22.36
2023-04-18T11:09:19.128Z,22.34
2023-04-18T11:10:19.150Z,22.32
2023-04-18T11:11:20.195Z,22.30
2023-04-18T11:12:20.259Z,22.29
2023-04-18T11:13:20.288Z,22.27
2023-04-18T11:14:20.326Z,22.26
2023-04-18T11:15:19.366Z,22.24
2023-04-18T11:16:20.426Z,22.23
2023-04-18T11:17:20.510Z,22.21
2023-04-18T11:18:20.535Z,22.21
2023-04-18T11:19:20.559Z,22.20
2023-04-18T11:20:20.659Z,22.18
2023-04-18T11:21:20.668Z,22.17
2023-04-18T11:22:19.829Z,22.17
2023-04-18T11:23:19.799Z,22.17
2023-04-18T11:24:20.876Z,22.16
2023-04-18T11:25:19.908Z,22.17
2023-04-18T11:26:19.958Z,22.16
2023-04-18T11:27:21.011Z,22.16
2023-04-18T11:28:20.057Z,22.16
2023-04-18T11:29:21.098Z,22.15
2023-04-18T11:30:21.147Z,22.14
2023-04-18T11:31:21.237Z,22.15
2023-04-18T11:32:21.464Z,22.14
2023-04-18T11:33:20.308Z,22.14
2023-04-18T11:34:21.337Z,22.14
2023-04-18T11:35:21.367Z,22.14
2023-04-18T11:36:21.437Z,22.14
2023-04-18T11:37:21.752Z,22.14
2023-04-18T11:38:23.890Z,22.13
2023-04-18T11:39:21.504Z,22.13
2023-04-18T11:40:21.497Z,22.13
2023-04-18T11:41:20.502Z,22.14
2023-04-18T11:42:20.718Z,22.13
2023-04-18T11:43:20.499Z,22.12
2023-04-18T11:44:21.475Z,22.12
2023-04-18T11:45:20.473Z,22.12
2023-04-18T11:46:20.501Z,22.12
2023-04-18T11:47:20.504Z,22.11
2023-04-18T11:48:21.456Z,22.11
2023-04-18T11:49:20.464Z,22.10
2023-04-18T11:50:21.451Z,22.09
2023-04-18T11:51:20.431Z,22.10
2023-04-18T11:52:21.439Z,22.08
2023-04-18T11:53:20.465Z,22.08
2023-04-18T11:54:20.452Z,22.09
2023-04-18T11:55:21.444Z,22.09
2023-04-18T11:56:20.384Z,22.09
2023-04-18T11:57:20.384Z,22.08
2023-04-18T11:58:20.368Z,22.07
2023-04-18T11:59:21.382Z,22.06
2023-04-18T12:00:20.369Z,22.05
2023-04-18T12:01:20.389Z,22.05
2023-04-18T12:02:20.587Z,22.05
2023-04-18T12:03:20.582Z,22.04
2023-04-18T12:04:21.132Z,22.04
2023-04-18T12:05:20.596Z,22.03
2023-04-18T12:06:21.499Z,22.03
2023-04-18T12:07:21.487Z,22.03
2023-04-18T12:08:20.528Z,22.01
2023-04-18T12:09:20.587Z,22.01
2023-04-18T12:10:20.617Z,22.00
2023-04-18T12:11:21.657Z,22.00
2023-04-18T12:12:21.711Z,22.00
2023-04-18T12:13:20.788Z,22.00
2023-04-18T12:14:20.806Z,21.99
2023-04-18T12:15:21.864Z,21.99
2023-04-18T12:16:20.979Z,21.98
2023-04-18T12:17:21.049Z,21.98
2023-04-18T12:18:22.050Z,21.98
2023-04-18T12:19:22.102Z,21.98
2023-04-18T12:20:21.150Z,21.93
2023-04-18T12:21:22.210Z,21.75
2023-04-18T12:22:21.736Z,21.53
2023-04-18T12:23:21.268Z,21.20
2023-04-18T12:24:22.291Z,21.20
2023-04-18T12:25:22.635Z,21.25
2023-04-18T12:26:21.294Z,21.28
2023-04-18T12:27:22.315Z,21.35
2023-04-18T12:28:21.288Z,21.41
2023-04-18T12:29:22.276Z,21.46
2023-04-18T12:30:22.269Z,21.50
2023-04-18T12:31:21.290Z,21.54
2023-04-18T12:32:21.385Z,21.56
2023-04-18T12:33:22.241Z,21.59
2023-04-18T12:34:21.246Z,21.62
2023-04-18T12:35:22.247Z,21.63
2023-04-18T12:36:22.233Z,21.63
2023-04-18T12:37:21.238Z,21.65
2023-04-18T12:38:22.213Z,21.67
2023-04-18T12:39:22.193Z,21.67
2023-04-18T12:40:21.290Z,21.68
2023-04-18T12:41:22.319Z,21.70
2023-04-18T12:42:21.187Z,21.71
2023-04-18T12:43:22.197Z,21.72
2023-04-18T12:44:21.195Z,21.71
2023-04-18T12:45:22.157Z,21.72
2023-04-18T12:46:21.216Z,21.73
2023-04-18T12:47:21.178Z,21.73
2023-04-18T12:48:22.132Z,21.74
2023-04-18T12:49:22.145Z,21.75
2023-04-18T12:50:22.149Z,21.75
2023-04-18T12:51:22.176Z,21.75
2023-04-18T12:52:21.334Z,21.75